WAT1374 KJLN-KMEM
Flight info
| Callsign | WAT1374 |
|---|---|
| Flight time | 0h 47m |
| Altitude | 31000 |
| Route | EOS RZC BRBBQ3 |
| Aircraft | E170/M-SDE3GILORVW/S |
Departure
| Time | 2026-05-06 11:54 |
|---|---|
| Airport | Joplin Regional Airport (KJLN) |
Arrival
| Time | 2026-05-06 12:41 |
|---|---|
| Airport | Memphis International Airport (KMEM) |
| Time | Latitude | Longitude | Altitude | Speed | Heading |
|---|---|---|---|---|---|
| 2026-05-06 11:45 | 37.15703 | -94.50109 | 977 ft | 0 kts | 242° |
| 2026-05-06 11:48 | 37.15700 | -94.50117 | 977 ft | 2 kts | 242° |
| 2026-05-06 11:48 | 37.15690 | -94.50129 | 977 ft | 2 kts | 195° |
| 2026-05-06 11:48 | 37.15676 | -94.50121 | 982 ft | 3 kts | 121° |
| 2026-05-06 11:49 | 37.15675 | -94.50097 | 976 ft | 3 kts | 75° |
| 2026-05-06 11:49 | 37.15694 | -94.50061 | 978 ft | 7 kts | 47° |
| 2026-05-06 11:49 | 37.15723 | -94.50003 | 982 ft | 9 kts | 79° |
| 2026-05-06 11:49 | 37.15713 | -94.49925 | 979 ft | 9 kts | 133° |
| 2026-05-06 11:50 | 37.15654 | -94.49912 | 974 ft | 10 kts | 182° |
| 2026-05-06 11:50 | 37.15578 | -94.49916 | 977 ft | 12 kts | 182° |
| 2026-05-06 11:50 | 37.15485 | -94.49920 | 974 ft | 14 kts | 181° |
| 2026-05-06 11:50 | 37.15377 | -94.49927 | 985 ft | 17 kts | 185° |
| 2026-05-06 11:51 | 37.15257 | -94.49930 | 974 ft | 18 kts | 181° |
| 2026-05-06 11:51 | 37.15122 | -94.49935 | 974 ft | 20 kts | 182° |
| 2026-05-06 11:51 | 37.14981 | -94.49942 | 978 ft | 20 kts | 185° |
| 2026-05-06 11:51 | 37.14834 | -94.49944 | 976 ft | 22 kts | 181° |
| 2026-05-06 11:52 | 37.14692 | -94.49951 | 979 ft | 11 kts | 183° |
| 2026-05-06 11:52 | 37.14636 | -94.49934 | 979 ft | 6 kts | 127° |
| 2026-05-06 11:52 | 37.14632 | -94.49901 | 977 ft | 4 kts | 90° |
| 2026-05-06 11:52 | 37.14632 | -94.49857 | 979 ft | 5 kts | 90° |
| 2026-05-06 11:53 | 37.14638 | -94.49830 | 979 ft | 4 kts | 46° |
| 2026-05-06 11:53 | 37.14786 | -94.49808 | 981 ft | 59 kts | 1° |
| 2026-05-06 11:53 | 37.15491 | -94.49782 | 980 ft | 141 kts | 1° |
| 2026-05-06 11:53 | 37.16583 | -94.49765 | 1548 ft | 170 kts | 2° |
| 2026-05-06 11:54 | 37.17824 | -94.49682 | 2574 ft | 187 kts | 6° |
| 2026-05-06 11:54 | 37.19029 | -94.49201 | 3717 ft | 193 kts | 38° |
| 2026-05-06 11:54 | 37.19753 | -94.47752 | 4747 ft | 211 kts | 65° |
| 2026-05-06 11:54 | 37.20146 | -94.45894 | 5826 ft | 231 kts | 80° |
| 2026-05-06 11:55 | 37.20060 | -94.43730 | 6765 ft | 266 kts | 102° |
| 2026-05-06 11:55 | 37.19162 | -94.41579 | 7670 ft | 293 kts | 132° |
| 2026-05-06 11:55 | 37.17479 | -94.40124 | 8870 ft | 297 kts | 166° |
| 2026-05-06 11:55 | 37.15481 | -94.39740 | 10309 ft | 288 kts | 188° |
| 2026-05-06 11:56 | 37.13443 | -94.39818 | 11375 ft | 299 kts | 191° |
| 2026-05-06 11:56 | 37.11330 | -94.39908 | 12629 ft | 306 kts | 190° |
| 2026-05-06 11:56 | 37.09190 | -94.39967 | 13958 ft | 309 kts | 190° |
| 2026-05-06 11:56 | 37.07039 | -94.40038 | 15139 ft | 311 kts | 191° |
| 2026-05-06 11:57 | 37.04870 | -94.40118 | 16278 ft | 314 kts | 192° |
| 2026-05-06 11:57 | 37.02681 | -94.40211 | 17374 ft | 315 kts | 194° |
| 2026-05-06 11:57 | 37.00518 | -94.40423 | 18426 ft | 317 kts | 196° |
| 2026-05-06 11:57 | 36.98321 | -94.40703 | 19333 ft | 318 kts | 198° |
| 2026-05-06 11:58 | 36.96112 | -94.41032 | 20221 ft | 321 kts | 199° |
| 2026-05-06 11:58 | 36.93889 | -94.41407 | 21055 ft | 323 kts | 200° |
| 2026-05-06 11:58 | 36.91658 | -94.41836 | 21904 ft | 325 kts | 202° |
| 2026-05-06 11:58 | 36.89423 | -94.42324 | 22655 ft | 328 kts | 203° |
| 2026-05-06 11:59 | 36.87170 | -94.42856 | 23445 ft | 330 kts | 204° |
| 2026-05-06 11:59 | 36.84864 | -94.43292 | 24102 ft | 345 kts | 197° |
| 2026-05-06 11:59 | 36.82388 | -94.43107 | 24714 ft | 369 kts | 185° |
| 2026-05-06 11:59 | 36.79838 | -94.42192 | 25295 ft | 394 kts | 174° |
| 2026-05-06 12:00 | 36.77274 | -94.40857 | 25893 ft | 401 kts | 172° |
| 2026-05-06 12:00 | 36.74736 | -94.39177 | 26121 ft | 439 kts | 157° |
| 2026-05-06 12:00 | 36.72495 | -94.36283 | 26113 ft | 492 kts | 136° |
| 2026-05-06 12:00 | 36.70750 | -94.32457 | 26167 ft | 521 kts | 125° |
| 2026-05-06 12:01 | 36.69131 | -94.28349 | 26221 ft | 533 kts | 126° |
| 2026-05-06 12:01 | 36.67267 | -94.24346 | 26246 ft | 526 kts | 134° |
| 2026-05-06 12:01 | 36.65217 | -94.20742 | 26046 ft | 497 kts | 137° |
| 2026-05-06 12:01 | 36.63172 | -94.17342 | 26046 ft | 490 kts | 139° |
| 2026-05-06 12:02 | 36.61039 | -94.14007 | 26054 ft | 495 kts | 140° |
| 2026-05-06 12:02 | 36.58905 | -94.10714 | 26061 ft | 496 kts | 140° |
| 2026-05-06 12:02 | 36.56735 | -94.07372 | 26057 ft | 498 kts | 140° |
| 2026-05-06 12:02 | 36.54558 | -94.04000 | 26061 ft | 499 kts | 140° |
| 2026-05-06 12:03 | 36.52381 | -94.00620 | 26074 ft | 500 kts | 139° |
| 2026-05-06 12:03 | 36.50205 | -93.97241 | 26056 ft | 500 kts | 139° |
| 2026-05-06 12:03 | 36.48029 | -93.93867 | 26058 ft | 501 kts | 140° |
| 2026-05-06 12:03 | 36.45849 | -93.90494 | 26076 ft | 500 kts | 139° |
| 2026-05-06 12:04 | 36.43672 | -93.87124 | 26011 ft | 500 kts | 139° |
| 2026-05-06 12:04 | 36.41529 | -93.83802 | 26154 ft | 502 kts | 139° |
| 2026-05-06 12:04 | 36.39340 | -93.80424 | 26032 ft | 498 kts | 139° |
| 2026-05-06 12:04 | 36.37160 | -93.77063 | 26029 ft | 500 kts | 140° |
| 2026-05-06 12:05 | 36.34982 | -93.73703 | 26025 ft | 500 kts | 140° |
| 2026-05-06 12:05 | 36.32801 | -93.70335 | 26043 ft | 500 kts | 140° |
| 2026-05-06 12:05 | 36.30619 | -93.66969 | 26045 ft | 501 kts | 140° |
| 2026-05-06 12:05 | 36.28439 | -93.63603 | 26039 ft | 501 kts | 140° |
| 2026-05-06 12:06 | 36.26259 | -93.60235 | 26039 ft | 501 kts | 139° |
| 2026-05-06 12:06 | 36.24085 | -93.56874 | 26041 ft | 501 kts | 139° |
| 2026-05-06 12:06 | 36.21910 | -93.53510 | 26052 ft | 500 kts | 139° |
| 2026-05-06 12:06 | 36.19735 | -93.50143 | 26010 ft | 500 kts | 139° |
| 2026-05-06 12:07 | 36.17582 | -93.46797 | 26142 ft | 494 kts | 140° |
| 2026-05-06 12:07 | 36.15442 | -93.43434 | 26406 ft | 504 kts | 137° |
| 2026-05-06 12:07 | 36.13484 | -93.39765 | 25787 ft | 520 kts | 129° |
| 2026-05-06 12:07 | 36.12029 | -93.35653 | 25426 ft | 522 kts | 114° |
| 2026-05-06 12:08 | 36.11087 | -93.31333 | 25511 ft | 520 kts | 111° |
| 2026-05-06 12:08 | 36.10190 | -93.27037 | 26366 ft | 510 kts | 111° |
| 2026-05-06 12:08 | 36.09314 | -93.22773 | 26819 ft | 517 kts | 111° |
| 2026-05-06 12:08 | 36.08464 | -93.18370 | 26001 ft | 531 kts | 109° |
| 2026-05-06 12:09 | 36.07673 | -93.13883 | 25178 ft | 528 kts | 108° |
| 2026-05-06 12:09 | 36.06896 | -93.09568 | 25241 ft | 508 kts | 109° |
| 2026-05-06 12:09 | 36.06107 | -93.05301 | 25719 ft | 511 kts | 109° |
| 2026-05-06 12:09 | 36.05319 | -93.01056 | 26188 ft | 515 kts | 109° |
| 2026-05-06 12:10 | 36.04523 | -92.96719 | 26599 ft | 521 kts | 109° |
| 2026-05-06 12:10 | 36.03722 | -92.92333 | 27000 ft | 526 kts | 109° |
| 2026-05-06 12:10 | 36.02915 | -92.87897 | 27360 ft | 532 kts | 109° |
| 2026-05-06 12:10 | 36.02100 | -92.83414 | 27683 ft | 538 kts | 109° |
| 2026-05-06 12:11 | 36.01275 | -92.78881 | 28026 ft | 543 kts | 109° |
| 2026-05-06 12:11 | 36.00443 | -92.74310 | 28374 ft | 547 kts | 109° |
| 2026-05-06 12:11 | 35.99605 | -92.69705 | 28701 ft | 552 kts | 109° |
| 2026-05-06 12:11 | 35.98762 | -92.65067 | 29067 ft | 554 kts | 109° |
| 2026-05-06 12:12 | 35.97912 | -92.60404 | 29355 ft | 559 kts | 109° |
| 2026-05-06 12:12 | 35.97054 | -92.55706 | 29623 ft | 563 kts | 109° |
| 2026-05-06 12:12 | 35.96190 | -92.50972 | 29898 ft | 566 kts | 109° |
| 2026-05-06 12:12 | 35.95320 | -92.46222 | 30165 ft | 569 kts | 109° |
| 2026-05-06 12:13 | 35.94741 | -92.43058 | 30359 ft | 570 kts | 109° |
| 2026-05-06 12:13 | 35.93868 | -92.38285 | 30685 ft | 570 kts | 109° |
| 2026-05-06 12:13 | 35.92714 | -92.31949 | 31081 ft | 568 kts | 109° |
| 2026-05-06 12:13 | 35.91842 | -92.27188 | 31055 ft | 569 kts | 109° |
| 2026-05-06 12:14 | 35.90086 | -92.17674 | 31054 ft | 569 kts | 109° |
| 2026-05-06 12:14 | 35.88611 | -92.09704 | 31037 ft | 569 kts | 109° |
| 2026-05-06 12:15 | 35.86858 | -92.00251 | 31036 ft | 569 kts | 109° |
| 2026-05-06 12:15 | 35.85087 | -91.90745 | 31016 ft | 569 kts | 109° |
| 2026-05-06 12:16 | 35.83315 | -91.81292 | 31067 ft | 566 kts | 109° |
| 2026-05-06 12:16 | 35.81357 | -91.71946 | 31058 ft | 552 kts | 118° |
| 2026-05-06 12:17 | 35.78203 | -91.63441 | 31060 ft | 545 kts | 123° |
| 2026-05-06 12:17 | 35.75053 | -91.55021 | 30995 ft | 527 kts | 123° |
| 2026-05-06 12:18 | 35.73552 | -91.50987 | 30979 ft | 509 kts | 123° |
| 2026-05-06 12:18 | 35.72088 | -91.47062 | 31018 ft | 502 kts | 123° |
| 2026-05-06 12:18 | 35.70615 | -91.43135 | 30237 ft | 510 kts | 123° |
| 2026-05-06 12:18 | 35.69125 | -91.39147 | 29010 ft | 514 kts | 123° |
| 2026-05-06 12:19 | 35.67628 | -91.35135 | 27789 ft | 517 kts | 122° |
| 2026-05-06 12:19 | 35.66129 | -91.31117 | 26595 ft | 518 kts | 122° |
| 2026-05-06 12:19 | 35.64641 | -91.27120 | 25953 ft | 506 kts | 122° |
| 2026-05-06 12:19 | 35.63188 | -91.23222 | 25242 ft | 497 kts | 122° |
| 2026-05-06 12:20 | 35.61761 | -91.19396 | 24600 ft | 487 kts | 122° |
| 2026-05-06 12:20 | 35.60358 | -91.15645 | 23982 ft | 478 kts | 122° |
| 2026-05-06 12:20 | 35.58983 | -91.11970 | 23339 ft | 469 kts | 122° |
| 2026-05-06 12:20 | 35.57632 | -91.08365 | 22780 ft | 458 kts | 123° |
| 2026-05-06 12:21 | 35.56310 | -91.04842 | 22173 ft | 449 kts | 123° |
| 2026-05-06 12:21 | 35.55029 | -91.01434 | 21620 ft | 441 kts | 123° |
| 2026-05-06 12:21 | 35.53752 | -90.98041 | 21061 ft | 434 kts | 123° |
| 2026-05-06 12:21 | 35.52494 | -90.94701 | 20506 ft | 429 kts | 123° |
| 2026-05-06 12:22 | 35.51245 | -90.91392 | 19957 ft | 426 kts | 123° |
| 2026-05-06 12:22 | 35.50001 | -90.88101 | 19409 ft | 425 kts | 123° |
| 2026-05-06 12:22 | 35.48763 | -90.84826 | 18864 ft | 421 kts | 122° |
| 2026-05-06 12:22 | 35.47535 | -90.81575 | 18283 ft | 419 kts | 122° |
| 2026-05-06 12:23 | 35.46318 | -90.78352 | 17723 ft | 414 kts | 122° |
| 2026-05-06 12:23 | 35.45118 | -90.75178 | 17228 ft | 407 kts | 121° |
| 2026-05-06 12:23 | 35.43934 | -90.72049 | 16693 ft | 402 kts | 121° |
| 2026-05-06 12:23 | 35.42760 | -90.68956 | 16208 ft | 397 kts | 121° |
| 2026-05-06 12:24 | 35.41603 | -90.65912 | 15933 ft | 391 kts | 121° |
| 2026-05-06 12:24 | 35.40448 | -90.62897 | 15718 ft | 390 kts | 121° |
| 2026-05-06 12:24 | 35.39292 | -90.59882 | 15623 ft | 392 kts | 121° |
| 2026-05-06 12:24 | 35.38143 | -90.56892 | 15514 ft | 394 kts | 121° |
| 2026-05-06 12:25 | 35.36975 | -90.53845 | 15369 ft | 394 kts | 121° |
| 2026-05-06 12:25 | 35.35813 | -90.50817 | 15232 ft | 393 kts | 121° |
| 2026-05-06 12:25 | 35.34614 | -90.47808 | 14904 ft | 391 kts | 126° |
| 2026-05-06 12:25 | 35.33081 | -90.45138 | 14526 ft | 375 kts | 136° |
| 2026-05-06 12:26 | 35.31423 | -90.42724 | 14024 ft | 369 kts | 137° |
| 2026-05-06 12:26 | 35.29785 | -90.40328 | 13491 ft | 365 kts | 136° |
| 2026-05-06 12:26 | 35.28181 | -90.37959 | 13015 ft | 357 kts | 135° |
| 2026-05-06 12:26 | 35.26628 | -90.35652 | 12543 ft | 345 kts | 136° |
| 2026-05-06 12:27 | 35.25125 | -90.33414 | 12155 ft | 333 kts | 136° |
| 2026-05-06 12:27 | 35.23675 | -90.31248 | 11885 ft | 327 kts | 136° |
| 2026-05-06 12:27 | 35.22234 | -90.29108 | 11629 ft | 325 kts | 136° |
| 2026-05-06 12:27 | 35.20801 | -90.26975 | 11484 ft | 324 kts | 136° |
| 2026-05-06 12:28 | 35.19366 | -90.24841 | 11311 ft | 326 kts | 136° |
| 2026-05-06 12:28 | 35.17948 | -90.22730 | 11129 ft | 325 kts | 136° |
| 2026-05-06 12:28 | 35.16512 | -90.20591 | 10952 ft | 325 kts | 136° |
| 2026-05-06 12:28 | 35.15082 | -90.18463 | 10754 ft | 324 kts | 136° |
| 2026-05-06 12:29 | 35.13646 | -90.16327 | 10417 ft | 325 kts | 136° |
| 2026-05-06 12:29 | 35.12224 | -90.14209 | 10078 ft | 319 kts | 136° |
| 2026-05-06 12:29 | 35.10813 | -90.12134 | 9633 ft | 315 kts | 140° |
| 2026-05-06 12:29 | 35.09092 | -90.10679 | 9203 ft | 291 kts | 169° |
| 2026-05-06 12:30 | 35.07198 | -90.10478 | 8902 ft | 264 kts | 194° |
| 2026-05-06 12:30 | 35.05381 | -90.10686 | 8543 ft | 262 kts | 192° |
| 2026-05-06 12:30 | 35.03566 | -90.10806 | 8189 ft | 259 kts | 191° |
| 2026-05-06 12:30 | 35.01769 | -90.10886 | 7864 ft | 257 kts | 189° |
| 2026-05-06 12:31 | 34.99986 | -90.10868 | 7536 ft | 256 kts | 187° |
| 2026-05-06 12:31 | 34.98240 | -90.10829 | 7211 ft | 252 kts | 188° |
| 2026-05-06 12:31 | 34.96500 | -90.10785 | 6921 ft | 248 kts | 187° |
| 2026-05-06 12:31 | 34.94780 | -90.10738 | 6622 ft | 246 kts | 187° |
| 2026-05-06 12:32 | 34.93073 | -90.10688 | 6313 ft | 244 kts | 187° |
| 2026-05-06 12:32 | 34.91380 | -90.10635 | 6001 ft | 242 kts | 187° |
| 2026-05-06 12:32 | 34.89703 | -90.10583 | 5712 ft | 239 kts | 187° |
| 2026-05-06 12:32 | 34.88046 | -90.10531 | 5417 ft | 237 kts | 187° |
| 2026-05-06 12:33 | 34.86400 | -90.10471 | 5127 ft | 236 kts | 186° |
| 2026-05-06 12:33 | 34.84764 | -90.10418 | 4834 ft | 234 kts | 186° |
| 2026-05-06 12:33 | 34.83141 | -90.10366 | 4547 ft | 232 kts | 186° |
| 2026-05-06 12:33 | 34.81541 | -90.10314 | 4276 ft | 225 kts | 186° |
| 2026-05-06 12:34 | 34.80047 | -90.10258 | 4112 ft | 209 kts | 186° |
| 2026-05-06 12:34 | 34.78636 | -90.10190 | 3949 ft | 196 kts | 186° |
| 2026-05-06 12:34 | 34.77314 | -90.10076 | 3930 ft | 188 kts | 180° |
| 2026-05-06 12:34 | 34.76037 | -90.09547 | 3767 ft | 198 kts | 159° |
| 2026-05-06 12:35 | 34.74928 | -90.08569 | 3799 ft | 203 kts | 139° |
| 2026-05-06 12:35 | 34.74337 | -90.06965 | 3803 ft | 218 kts | 98° |
| 2026-05-06 12:35 | 34.74652 | -90.05161 | 3830 ft | 222 kts | 58° |
| 2026-05-06 12:35 | 34.75722 | -90.03873 | 3976 ft | 211 kts | 27° |
| 2026-05-06 12:36 | 34.76955 | -90.02885 | 4612 ft | 219 kts | 28° |
| 2026-05-06 12:36 | 34.78247 | -90.01798 | 4835 ft | 230 kts | 29° |
| 2026-05-06 12:36 | 34.79545 | -90.00713 | 4879 ft | 221 kts | 28° |
| 2026-05-06 12:36 | 34.80824 | -89.99671 | 4498 ft | 228 kts | 28° |
| 2026-05-06 12:37 | 34.82175 | -89.98594 | 3967 ft | 236 kts | 27° |
| 2026-05-06 12:37 | 34.83619 | -89.97643 | 3474 ft | 238 kts | 20° |
| 2026-05-06 12:37 | 34.85176 | -89.97130 | 3092 ft | 225 kts | 353° |
| 2026-05-06 12:37 | 34.86591 | -89.97255 | 3651 ft | 190 kts | 347° |
| 2026-05-06 12:38 | 34.87966 | -89.97267 | 4287 ft | 205 kts | 353° |
| 2026-05-06 12:38 | 34.89476 | -89.97264 | 3608 ft | 227 kts | 350° |
| 2026-05-06 12:38 | 34.91050 | -89.97370 | 2863 ft | 225 kts | 353° |
| 2026-05-06 12:38 | 34.92591 | -89.97392 | 2329 ft | 215 kts | 359° |
| 2026-05-06 12:39 | 34.94028 | -89.97288 | 1875 ft | 201 kts | 1° |
| 2026-05-06 12:39 | 34.95311 | -89.97324 | 1892 ft | 179 kts | 355° |
| 2026-05-06 12:39 | 34.96549 | -89.97443 | 1746 ft | 178 kts | 355° |
| 2026-05-06 12:39 | 34.97736 | -89.97508 | 1437 ft | 163 kts | 359° |
| 2026-05-06 12:40 | 34.98816 | -89.97477 | 1081 ft | 151 kts | 2° |
| 2026-05-06 12:40 | 34.99821 | -89.97485 | 847 ft | 140 kts | 358° |
| 2026-05-06 12:40 | 35.00756 | -89.97526 | 667 ft | 131 kts | 0° |
| 2026-05-06 12:40 | 35.01649 | -89.97544 | 480 ft | 127 kts | 0° |
| 2026-05-06 12:41 | 35.02528 | -89.97558 | 316 ft | 125 kts | 360° |
| 2026-05-06 12:41 | 35.03290 | -89.97570 | 296 ft | 85 kts | 358° |
| 2026-05-06 12:41 | 35.03718 | -89.97584 | 304 ft | 42 kts | 358° |
| 2026-05-06 12:41 | 35.03977 | -89.97595 | 309 ft | 34 kts | 350° |
| 2026-05-06 12:42 | 35.04124 | -89.97665 | 314 ft | 15 kts | 312° |
| 2026-05-06 12:42 | 35.04195 | -89.97761 | 314 ft | 16 kts | 306° |
| 2026-05-06 12:42 | 35.04221 | -89.97825 | 313 ft | 1 kts | 323° |
| 2026-05-06 12:42 | 35.04235 | -89.97833 | 314 ft | 5 kts | 342° |
| 2026-05-06 12:43 | 35.04273 | -89.97837 | 314 ft | 1 kts | 345° |
| 2026-05-06 12:43 | 35.04280 | -89.97844 | 314 ft | 2 kts | 303° |
| 2026-05-06 12:43 | 35.04291 | -89.97874 | 314 ft | 6 kts | 294° |
| 2026-05-06 12:43 | 35.04307 | -89.97911 | 314 ft | 0 kts | 300° |